This is the latest recevied weather packets stored in our database for station/object KF6ILA. If no packets are shown the sender has not sent any weather packets the latest 10 day(s).
| Time | Temp. | Humidity | Pressure | Rain* | Wind** | Luminosity | Snow |
|---|---|---|---|---|---|---|---|
| 1777612857 | 12.78° C | 76% | 1011.4 hPa | 0 mm | - | 0 W/m² | - |
| 1777612559 | 12.78° C | 75% | 1011.4 hPa | 0 mm | - | 0 W/m² | - |
| 1777611669 | 12.78° C | 76% | 1011.3 hPa | 0 mm | - | 0 W/m² | - |
| 1777611372 | 12.78° C | 78% | 1011.2 hPa | 0 mm | - | 0 W/m² | - |
| 1777611075 | 12.78° C | 80% | 1011.2 hPa | 0 mm | - | 0 W/m² | - |
| 1777610778 | 12.22° C | 83% | 1011.2 hPa | 0 mm | - | 0 W/m² | - |
| 1777610481 | 12.22° C | 85% | 1011.3 hPa | 0 mm | - | 0 W/m² | - |
| 1777610184 | 11.67° C | 88% | 1011.2 hPa | 0 mm | - | 0 W/m² | - |
| 1777609887 | 11.67° C | 90% | 1011.2 hPa | 0 mm | - | 0 W/m² | - |
| 1777608996 | 11.11° C | 94% | 1011 hPa | 0 mm | - | 0 W/m² | - |
| 1777608699 | 10.56° C | 94% | 1010.9 hPa | 0 mm | - | 0 W/m² | - |
| 1777608105 | 10.56° C | 96% | 1011 hPa | 0 mm | - | 0 W/m² | - |
| 1777607808 | 10° C | 97% | 1010.9 hPa | 0 mm | - | 0 W/m² | - |
| 1777607214 | 10° C | 96% | 1010.7 hPa | 0 mm | - | 0 W/m² | - |
| 1777606917 | 9.44° C | 96% | 1010.7 hPa | 0 mm | - | 0 W/m² | - |
| 1777606620 | 10° C | 96% | 1010.7 hPa | 0 mm | - | 0 W/m² | - |
| 1777606323 | 10° C | 96% | 1010.6 hPa | 0 mm | - | 0 W/m² | - |
| 1777605432 | 10° C | 96% | 1010.4 hPa | 0 mm | - | 0 W/m² | - |
| 1777604540 | 10° C | 96% | 1010.3 hPa | 0 mm | - | 0 W/m² | - |
| 1777603947 | 10° C | 95% | 1010.3 hPa | 0 mm | - | 0 W/m² | - |
| 1777603055 | 10° C | 94% | 1010.2 hPa | 0 mm | - | 0 W/m² | - |
| 1777602165 | 10.56° C | 93% | 1010.3 hPa | 0 mm | - | 7 W/m² | - |
| 1777601624 | 11.11° C | 91% | 1010 hPa | 0 mm | - | 14 W/m² | - |
| 1777601570 | 11.11° C | 91% | 1010 hPa | 0 mm | - | 14 W/m² | - |
| 1777601273 | 11.11° C | 90% | 1009.8 hPa | 0 mm | - | 18 W/m² | - |
* Rain latest hour (hover to see other rain measurements)
** Current wind speed in m/s (hover to see current wind gust speed)